sensor_id;sensor_type;location;lat;lon;timestamp;pressure;altitude;pressure_sealevel;temperature;humidity
58245;BME280;44550;43.864;25.986;2022-07-25T00:03:30;100987.09;;;22.98;91.67
58245;BME280;44550;43.864;25.986;2022-07-25T00:07:31;100968.81;;;22.66;93.10
58245;BME280;44550;43.864;25.986;2022-07-25T00:11:31;100983.84;;;22.45;95.11
58245;BME280;44550;43.864;25.986;2022-07-25T00:15:31;100971.63;;;22.39;97.49
58245;BME280;44550;43.864;25.986;2022-07-25T00:19:31;100948.53;;;22.40;96.99
58245;BME280;44550;43.864;25.986;2022-07-25T00:23:33;100949.06;;;22.26;99.04
58245;BME280;44550;43.864;25.986;2022-07-25T00:27:32;100925.81;;;22.06;97.48
58245;BME280;44550;43.864;25.986;2022-07-25T00:31:32;100926.59;;;21.85;100.00
58245;BME280;44550;43.864;25.986;2022-07-25T00:35:31;100933.50;;;21.90;99.14
58245;BME280;44550;43.864;25.986;2022-07-25T00:39:33;100929.03;;;21.91;100.00
58245;BME280;44550;43.864;25.986;2022-07-25T00:43:33;100922.66;;;21.95;100.00
58245;BME280;44550;43.864;25.986;2022-07-25T00:47:32;100941.91;;;22.03;100.00
58245;BME280;44550;43.864;25.986;2022-07-25T00:51:32;100959.41;;;22.34;100.00
58245;BME280;44550;43.864;25.986;2022-07-25T00:55:34;100970.06;;;22.79;99.76
58245;BME280;44550;43.864;25.986;2022-07-25T00:59:34;100972.41;;;22.87;96.94
58245;BME280;44550;43.864;25.986;2022-07-25T01:03:33;100972.19;;;23.15;96.19
58245;BME280;44550;43.864;25.986;2022-07-25T01:07:34;100977.94;;;23.04;94.42
58245;BME280;44550;43.864;25.986;2022-07-25T01:11:36;100985.81;;;22.85;96.08
58245;BME280;44550;43.864;25.986;2022-07-25T01:15:36;100991.03;;;22.88;95.84
58245;BME280;44550;43.864;25.986;2022-07-25T01:19:36;100994.81;;;22.83;96.79
58245;BME280;44550;43.864;25.986;2022-07-25T01:23:37;100991.06;;;22.65;97.45
58245;BME280;44550;43.864;25.986;2022-07-25T01:27:37;100978.66;;;22.64;97.16
58245;BME280;44550;43.864;25.986;2022-07-25T01:31:36;100979.22;;;22.50;99.14
58245;BME280;44550;43.864;25.986;2022-07-25T01:35:36;100970.47;;;22.46;98.67
58245;BME280;44550;43.864;25.986;2022-07-25T01:39:42;100974.88;;;22.47;100.00
58245;BME280;44550;43.864;25.986;2022-07-25T01:43:41;100977.47;;;22.49;99.57
58245;BME280;44550;43.864;25.986;2022-07-25T01:47:41;100953.84;;;22.40;98.50
58245;BME280;44550;43.864;25.986;2022-07-25T01:51:40;100954.41;;;22.26;100.00
58245;BME280;44550;43.864;25.986;2022-07-25T01:55:43;100960.25;;;22.36;100.00
58245;BME280;44550;43.864;25.986;2022-07-25T01:59:43;100961.97;;;22.37;99.66
58245;BME280;44550;43.864;25.986;2022-07-25T02:03:43;100966.34;;;22.38;100.00
58245;BME280;44550;43.864;25.986;2022-07-25T02:07:42;100956.63;;;22.37;99.99
58245;BME280;44550;43.864;25.986;2022-07-25T02:11:44;100965.97;;;22.48;100.00
58245;BME280;44550;43.864;25.986;2022-07-25T02:15:43;100964.94;;;22.51;98.54
58245;BME280;44550;43.864;25.986;2022-07-25T02:19:43;100971.28;;;22.48;99.86
58245;BME280;44550;43.864;25.986;2022-07-25T02:23:43;100975.50;;;22.54;98.93
58245;BME280;44550;43.864;25.986;2022-07-25T02:27:45;100977.38;;;22.74;100.00
58245;BME280;44550;43.864;25.986;2022-07-25T02:31:45;100969.81;;;22.85;98.13
58245;BME280;44550;43.864;25.986;2022-07-25T02:35:44;100975.31;;;22.81;98.60
58245;BME280;44550;43.864;25.986;2022-07-25T02:39:44;100986.19;;;22.76;97.42
58245;BME280;44550;43.864;25.986;2022-07-25T02:43:46;100980.00;;;22.75;99.16
58245;BME280;44550;43.864;25.986;2022-07-25T02:47:45;100986.84;;;22.81;100.00
58245;BME280;44550;43.864;25.986;2022-07-25T02:51:45;100978.41;;;22.93;97.89
58245;BME280;44550;43.864;25.986;2022-07-25T02:55:45;100981.34;;;22.86;100.00
58245;BME280;44550;43.864;25.986;2022-07-25T02:59:46;100976.03;;;23.08;100.00
58245;BME280;44550;43.864;25.986;2022-07-25T03:03:46;100974.88;;;23.15;99.14
58245;BME280;44550;43.864;25.986;2022-07-25T03:07:45;100975.72;;;23.15;99.33
58245;BME280;44550;43.864;25.986;2022-07-25T03:11:45;100974.78;;;23.16;95.94
58245;BME280;44550;43.864;25.986;2022-07-25T03:15:48;100976.03;;;23.08;94.98
58245;BME280;44550;43.864;25.986;2022-07-25T03:19:48;100979.63;;;23.07;96.73
58245;BME280;44550;43.864;25.986;2022-07-25T03:23:47;100976.91;;;23.08;96.47
58245;BME280;44550;43.864;25.986;2022-07-25T03:27:49;100969.66;;;23.12;96.67
58245;BME280;44550;43.864;25.986;2022-07-25T03:31:51;100975.00;;;23.12;96.64
58245;BME280;44550;43.864;25.986;2022-07-25T03:35:51;100976.63;;;23.14;97.84
58245;BME280;44550;43.864;25.986;2022-07-25T03:39:52;100979.06;;;23.41;97.20
58245;BME280;44550;43.864;25.986;2022-07-25T03:43:52;100984.31;;;23.64;94.48
58245;BME280;44550;43.864;25.986;2022-07-25T03:47:53;100994.06;;;23.86;94.97
58245;BME280;44550;43.864;25.986;2022-07-25T03:51:53;100993.72;;;24.14;96.23
58245;BME280;44550;43.864;25.986;2022-07-25T03:55:54;100983.88;;;24.33;92.06
58245;BME280;44550;43.864;25.986;2022-07-25T03:59:53;101001.50;;;24.58;91.92
58245;BME280;44550;43.864;25.986;2022-07-25T04:03:55;101004.63;;;24.85;89.79
58245;BME280;44550;43.864;25.986;2022-07-25T04:07:55;101001.09;;;25.03;90.47
58245;BME280;44550;43.864;25.986;2022-07-25T04:11:55;101003.97;;;25.18;90.06
58245;BME280;44550;43.864;25.986;2022-07-25T04:15:54;101006.50;;;25.21;88.43
58245;BME280;44550;43.864;25.986;2022-07-25T04:19:56;101007.41;;;25.20;89.03
58245;BME280;44550;43.864;25.986;2022-07-25T04:23:56;101000.91;;;25.06;86.87
58245;BME280;44550;43.864;25.986;2022-07-25T04:27:55;100991.19;;;24.87;84.54
58245;BME280;44550;43.864;25.986;2022-07-25T04:31:55;101020.25;;;24.75;84.82
58245;BME280;44550;43.864;25.986;2022-07-25T04:36:01;101011.59;;;24.51;85.78
58245;BME280;44550;43.864;25.986;2022-07-25T04:40:01;101005.97;;;24.37;84.27
58245;BME280;44550;43.864;25.986;2022-07-25T04:44:02;101008.06;;;24.30;84.58
58245;BME280;44550;43.864;25.986;2022-07-25T04:48:05;101009.88;;;24.30;82.92
58245;BME280;44550;43.864;25.986;2022-07-25T04:52:07;100989.78;;;24.42;82.52
58245;BME280;44550;43.864;25.986;2022-07-25T04:56:07;101006.88;;;24.75;79.54
58245;BME280;44550;43.864;25.986;2022-07-25T05:00:09;100993.00;;;24.86;79.73
58245;BME280;44550;43.864;25.986;2022-07-25T05:04:09;101010.53;;;25.47;77.08
58245;BME280;44550;43.864;25.986;2022-07-25T05:08:10;101011.13;;;26.04;74.23
58245;BME280;44550;43.864;25.986;2022-07-25T05:12:10;101017.75;;;26.63;70.68
58245;BME280;44550;43.864;25.986;2022-07-25T05:16:10;101006.06;;;27.12;67.83
58245;BME280;44550;43.864;25.986;2022-07-25T05:20:10;101008.16;;;27.53;65.06
58245;BME280;44550;43.864;25.986;2022-07-25T05:24:12;101029.47;;;27.70;61.78
58245;BME280;44550;43.864;25.986;2022-07-25T05:28:12;101038.41;;;27.71;62.84
58245;BME280;44550;43.864;25.986;2022-07-25T05:32:13;101048.84;;;27.61;64.24
58245;BME280;44550;43.864;25.986;2022-07-25T05:36:13;101036.06;;;27.80;62.90
58245;BME280;44550;43.864;25.986;2022-07-25T05:40:15;101040.22;;;27.40;62.35
58245;BME280;44550;43.864;25.986;2022-07-25T05:44:15;101040.69;;;27.32;62.46
58245;BME280;44550;43.864;25.986;2022-07-25T05:48:14;101053.94;;;27.66;61.47
58245;BME280;44550;43.864;25.986;2022-07-25T05:52:16;101047.00;;;27.77;60.21
58245;BME280;44550;43.864;25.986;2022-07-25T05:56:18;101043.25;;;27.50;61.81
58245;BME280;44550;43.864;25.986;2022-07-25T06:00:18;101040.00;;;27.29;61.96
58245;BME280;44550;43.864;25.986;2022-07-25T06:04:17;101039.69;;;27.19;62.06
58245;BME280;44550;43.864;25.986;2022-07-25T06:08:23;101037.31;;;26.97;62.32
58245;BME280;44550;43.864;25.986;2022-07-25T06:12:26;101027.63;;;26.63;63.99
58245;BME280;44550;43.864;25.986;2022-07-25T06:16:26;101033.78;;;26.81;64.64
58245;BME280;44550;43.864;25.986;2022-07-25T06:20:26;101014.38;;;26.91;63.04
58245;BME280;44550;43.864;25.986;2022-07-25T06:24:26;101037.31;;;26.97;62.75
58245;BME280;44550;43.864;25.986;2022-07-25T06:28:27;101020.00;;;27.03;61.06
58245;BME280;44550;43.864;25.986;2022-07-25T06:32:32;101047.34;;;26.78;63.07
58245;BME280;44550;43.864;25.986;2022-07-25T06:36:42;101047.69;;;26.56;63.50
58245;BME280;44550;43.864;25.986;2022-07-25T06:40:44;101055.22;;;26.32;64.40
58245;BME280;44550;43.864;25.986;2022-07-25T06:44:46;101056.88;;;26.34;65.50
58245;BME280;44550;43.864;25.986;2022-07-25T06:48:46;101059.38;;;26.37;65.04
58245;BME280;44550;43.864;25.986;2022-07-25T06:52:46;101057.28;;;26.27;64.64
58245;BME280;44550;43.864;25.986;2022-07-25T06:56:45;101059.06;;;26.10;64.19
58245;BME280;44550;43.864;25.986;2022-07-25T07:00:57;101058.28;;;25.91;64.46
58245;BME280;44550;43.864;25.986;2022-07-25T07:04:57;101067.97;;;25.93;65.61
58245;BME280;44550;43.864;25.986;2022-07-25T07:08:57;101069.84;;;26.09;63.77
58245;BME280;44550;43.864;25.986;2022-07-25T07:13:05;101070.69;;;26.09;63.71
58245;BME280;44550;43.864;25.986;2022-07-25T07:17:07;101064.56;;;26.07;64.00
58245;BME280;44550;43.864;25.986;2022-07-25T07:21:06;101059.91;;;26.11;63.61
58245;BME280;44550;43.864;25.986;2022-07-25T07:25:16;101008.34;;;25.90;62.90
58245;BME280;44550;43.864;25.986;2022-07-25T07:29:17;101059.72;;;26.31;63.12
58245;BME280;44550;43.864;25.986;2022-07-25T07:33:18;101070.09;;;26.37;63.60
58245;BME280;44550;43.864;25.986;2022-07-25T07:37:18;101065.94;;;26.49;62.45
58245;BME280;44550;43.864;25.986;2022-07-25T07:41:18;101073.31;;;26.77;60.70
58245;BME280;44550;43.864;25.986;2022-07-25T07:45:19;101052.03;;;26.74;60.60
58245;BME280;44550;43.864;25.986;2022-07-25T07:49:21;101068.91;;;27.08;60.00
58245;BME280;44550;43.864;25.986;2022-07-25T07:53:21;101079.84;;;27.21;59.32
58245;BME280;44550;43.864;25.986;2022-07-25T07:57:40;101052.00;;;27.37;57.75
58245;BME280;44550;43.864;25.986;2022-07-25T08:01:42;101041.59;;;27.47;57.55
58245;BME280;44550;43.864;25.986;2022-07-25T08:05:47;101039.06;;;27.60;57.46
58245;BME280;44550;43.864;25.986;2022-07-25T08:09:47;101062.25;;;28.21;56.14
58245;BME280;44550;43.864;25.986;2022-07-25T08:13:47;101056.88;;;28.50;54.96
58245;BME280;44550;43.864;25.986;2022-07-25T08:17:47;101056.47;;;28.70;53.39
58245;BME280;44550;43.864;25.986;2022-07-25T08:21:50;101061.31;;;29.07;52.04
58245;BME280;44550;43.864;25.986;2022-07-25T08:25:52;101058.94;;;29.29;50.54
58245;BME280;44550;43.864;25.986;2022-07-25T08:29:53;101065.59;;;29.23;51.29
58245;BME280;44550;43.864;25.986;2022-07-25T08:33:52;101062.19;;;29.07;51.31
58245;BME280;44550;43.864;25.986;2022-07-25T08:37:58;101057.59;;;28.95;50.90
58245;BME280;44550;43.864;25.986;2022-07-25T08:41:59;101062.91;;;28.82;50.58
58245;BME280;44550;43.864;25.986;2022-07-25T08:46:07;101053.22;;;28.65;53.04
58245;BME280;44550;43.864;25.986;2022-07-25T08:50:09;101049.19;;;28.99;51.33
58245;BME280;44550;43.864;25.986;2022-07-25T08:54:15;101049.84;;;28.76;50.88
58245;BME280;44550;43.864;25.986;2022-07-25T08:58:19;101047.25;;;28.60;51.71
58245;BME280;44550;43.864;25.986;2022-07-25T09:02:18;101046.16;;;28.77;50.05
58245;BME280;44550;43.864;25.986;2022-07-25T09:06:20;101046.34;;;28.88;51.21
58245;BME280;44550;43.864;25.986;2022-07-25T09:10:24;101043.38;;;29.20;48.52
58245;BME280;44550;43.864;25.986;2022-07-25T09:14:25;101032.13;;;29.40;47.80
58245;BME280;44550;43.864;25.986;2022-07-25T09:18:26;101046.28;;;29.44;47.83
58245;BME280;44550;43.864;25.986;2022-07-25T09:22:26;101025.47;;;29.46;47.39
58245;BME280;44550;43.864;25.986;2022-07-25T09:26:29;101032.16;;;29.67;47.90
58245;BME280;44550;43.864;25.986;2022-07-25T09:30:31;101015.66;;;29.72;47.49
58245;BME280;44550;43.864;25.986;2022-07-25T09:34:33;100988.25;;;29.65;47.22
58245;BME280;44550;43.864;25.986;2022-07-25T09:38:34;101000.53;;;29.69;45.58
58245;BME280;44550;43.864;25.986;2022-07-25T09:42:36;101021.47;;;29.79;46.51
58245;BME280;44550;43.864;25.986;2022-07-25T09:46:36;101021.38;;;29.80;46.35
58245;BME280;44550;43.864;25.986;2022-07-25T09:50:35;101025.25;;;29.89;46.16
58245;BME280;44550;43.864;25.986;2022-07-25T09:54:36;101017.38;;;29.73;46.42
58245;BME280;44550;43.864;25.986;2022-07-25T09:58:46;101026.75;;;29.93;44.36
58245;BME280;44550;43.864;25.986;2022-07-25T10:03:24;101023.63;;;29.99;43.94
58245;BME280;44550;43.864;25.986;2022-07-25T10:07:28;101020.84;;;30.13;42.35
58245;BME280;44550;43.864;25.986;2022-07-25T10:11:34;101006.72;;;30.23;43.41
58245;BME280;44550;43.864;25.986;2022-07-25T10:15:51;101010.25;;;30.36;43.09
58245;BME280;44550;43.864;25.986;2022-07-25T10:19:53;100999.88;;;30.42;43.25
58245;BME280;44550;43.864;25.986;2022-07-25T10:24:00;101004.66;;;30.76;42.64
58245;BME280;44550;43.864;25.986;2022-07-25T10:28:07;101008.59;;;30.59;43.56
58245;BME280;44550;43.864;25.986;2022-07-25T10:32:15;100991.13;;;30.88;42.27
58245;BME280;44550;43.864;25.986;2022-07-25T10:36:25;100959.38;;;30.92;42.18
58245;BME280;44550;43.864;25.986;2022-07-25T10:40:33;100989.94;;;31.52;39.64
58245;BME280;44550;43.864;25.986;2022-07-25T10:44:54;100979.16;;;31.28;40.64
58245;BME280;44550;43.864;25.986;2022-07-25T10:49:04;100979.75;;;31.44;40.01
58245;BME280;44550;43.864;25.986;2022-07-25T10:53:04;100965.50;;;31.18;41.53
58245;BME280;44550;43.864;25.986;2022-07-25T10:57:21;100971.69;;;31.31;40.59
58245;BME280;44550;43.864;25.986;2022-07-25T11:01:30;100974.00;;;31.25;41.18
58245;BME280;44550;43.864;25.986;2022-07-25T11:05:43;100956.00;;;31.12;41.11
58245;BME280;44550;43.864;25.986;2022-07-25T11:09:55;100942.88;;;31.08;41.70
58245;BME280;44550;43.864;25.986;2022-07-25T11:13:55;100959.41;;;31.27;40.79
58245;BME280;44550;43.864;25.986;2022-07-25T11:17:55;100949.22;;;31.31;41.33
58245;BME280;44550;43.864;25.986;2022-07-25T11:22:14;100891.56;;;31.43;40.01
58245;BME280;44550;43.864;25.986;2022-07-25T11:26:19;100902.94;;;31.35;39.65
58245;BME280;44550;43.864;25.986;2022-07-25T11:30:19;100910.75;;;31.27;39.71
58245;BME280;44550;43.864;25.986;2022-07-25T11:34:21;100929.44;;;31.30;39.66
58245;BME280;44550;43.864;25.986;2022-07-25T11:38:25;100926.06;;;31.40;40.34
58245;BME280;44550;43.864;25.986;2022-07-25T11:42:39;100918.09;;;31.61;39.32
58245;BME280;44550;43.864;25.986;2022-07-25T11:46:48;100913.22;;;31.88;38.94
58245;BME280;44550;43.864;25.986;2022-07-25T11:50:47;100911.63;;;31.97;38.53
58245;BME280;44550;43.864;25.986;2022-07-25T11:54:54;100910.88;;;32.28;38.86
58245;BME280;44550;43.864;25.986;2022-07-25T11:58:58;100885.28;;;32.44;38.06
58245;BME280;44550;43.864;25.986;2022-07-25T12:03:05;100905.53;;;32.61;38.15
58245;BME280;44550;43.864;25.986;2022-07-25T12:07:37;100887.25;;;32.74;37.22
58245;BME280;44550;43.864;25.986;2022-07-25T12:11:39;100892.66;;;32.42;37.17
58245;BME280;44550;43.864;25.986;2022-07-25T12:15:40;100883.50;;;32.54;38.14
58245;BME280;44550;43.864;25.986;2022-07-25T12:19:39;100879.63;;;32.79;36.98
58245;BME280;44550;43.864;25.986;2022-07-25T12:23:43;100875.91;;;32.80;36.99
58245;BME280;44550;43.864;25.986;2022-07-25T12:27:46;100873.13;;;32.91;36.92
58245;BME280;44550;43.864;25.986;2022-07-25T12:31:46;100870.88;;;33.08;37.28
58245;BME280;44550;43.864;25.986;2022-07-25T12:35:47;100870.34;;;33.35;37.17
58245;BME280;44550;43.864;25.986;2022-07-25T12:39:49;100861.88;;;33.49;35.18
58245;BME280;44550;43.864;25.986;2022-07-25T12:43:51;100860.66;;;33.63;35.14
58245;BME280;44550;43.864;25.986;2022-07-25T12:47:53;100859.69;;;33.43;35.84
58245;BME280;44550;43.864;25.986;2022-07-25T12:51:53;100849.09;;;33.40;34.61
58245;BME280;44550;43.864;25.986;2022-07-25T12:55:57;100849.47;;;33.26;36.06
58245;BME280;44550;43.864;25.986;2022-07-25T12:59:59;100838.91;;;33.02;36.25
58245;BME280;44550;43.864;25.986;2022-07-25T13:03:58;100839.50;;;33.05;36.69
58245;BME280;44550;43.864;25.986;2022-07-25T13:07:58;100833.06;;;33.27;34.53
58245;BME280;44550;43.864;25.986;2022-07-25T13:11:58;100835.22;;;33.54;35.27
58245;BME280;44550;43.864;25.986;2022-07-25T13:16:06;100815.41;;;33.63;33.36
58245;BME280;44550;43.864;25.986;2022-07-25T13:20:08;100804.03;;;33.39;33.43
58245;BME280;44550;43.864;25.986;2022-07-25T13:24:08;100815.41;;;33.33;32.70
58245;BME280;44550;43.864;25.986;2022-07-25T13:28:08;100805.56;;;33.32;33.53
58245;BME280;44550;43.864;25.986;2022-07-25T13:32:10;100806.31;;;33.43;32.50
58245;BME280;44550;43.864;25.986;2022-07-25T13:36:10;100812.59;;;33.44;32.51
58245;BME280;44550;43.864;25.986;2022-07-25T13:40:10;100809.19;;;33.42;32.37
58245;BME280;44550;43.864;25.986;2022-07-25T13:44:09;100804.16;;;33.37;33.10
58245;BME280;44550;43.864;25.986;2022-07-25T13:48:13;100796.19;;;33.45;33.58
58245;BME280;44550;43.864;25.986;2022-07-25T13:52:26;100789.78;;;33.47;34.68
58245;BME280;44550;43.864;25.986;2022-07-25T13:56:26;100793.41;;;33.57;33.83
58245;BME280;44550;43.864;25.986;2022-07-25T14:00:25;100785.97;;;33.49;32.50
58245;BME280;44550;43.864;25.986;2022-07-25T14:04:27;100787.72;;;33.60;34.07
58245;BME280;44550;43.864;25.986;2022-07-25T14:08:27;100786.47;;;33.74;32.82
58245;BME280;44550;43.864;25.986;2022-07-25T14:12:26;100770.78;;;33.77;32.39
58245;BME280;44550;43.864;25.986;2022-07-25T14:16:26;100768.66;;;33.81;31.95
58245;BME280;44550;43.864;25.986;2022-07-25T14:20:28;100766.28;;;34.07;32.77
58245;BME280;44550;43.864;25.986;2022-07-25T14:24:28;100765.75;;;34.13;32.94
58245;BME280;44550;43.864;25.986;2022-07-25T14:28:28;100769.19;;;34.34;32.11
58245;BME280;44550;43.864;25.986;2022-07-25T14:32:28;100746.41;;;33.97;31.82
58245;BME280;44550;43.864;25.986;2022-07-25T14:36:30;100763.75;;;34.05;31.26
58245;BME280;44550;43.864;25.986;2022-07-25T14:40:30;100759.63;;;34.11;31.18
58245;BME280;44550;43.864;25.986;2022-07-25T14:44:29;100747.59;;;34.13;31.54
58245;BME280;44550;43.864;25.986;2022-07-25T14:48:29;100739.91;;;34.19;31.17
58245;BME280;44550;43.864;25.986;2022-07-25T14:52:31;100740.47;;;34.51;31.67
58245;BME280;44550;43.864;25.986;2022-07-25T14:56:31;100746.00;;;34.79;30.44
58245;BME280;44550;43.864;25.986;2022-07-25T15:00:30;100744.13;;;34.79;30.00
58245;BME280;44550;43.864;25.986;2022-07-25T15:04:30;100738.13;;;34.86;30.42
58245;BME280;44550;43.864;25.986;2022-07-25T15:08:32;100735.38;;;35.05;30.39
58245;BME280;44550;43.864;25.986;2022-07-25T15:12:32;100735.06;;;35.18;29.83
58245;BME280;44550;43.864;25.986;2022-07-25T15:16:31;100734.19;;;35.17;29.39
58245;BME280;44550;43.864;25.986;2022-07-25T15:20:31;100730.25;;;35.02;29.82
58245;BME280;44550;43.864;25.986;2022-07-25T15:24:33;100722.59;;;34.68;30.27
58245;BME280;44550;43.864;25.986;2022-07-25T15:28:52;100714.25;;;34.79;30.47
58245;BME280;44550;43.864;25.986;2022-07-25T15:32:52;100719.00;;;34.77;30.19
58245;BME280;44550;43.864;25.986;2022-07-25T15:36:53;100714.66;;;34.94;29.70
58245;BME280;44550;43.864;25.986;2022-07-25T15:40:55;100717.63;;;35.01;29.60
58245;BME280;44550;43.864;25.986;2022-07-25T15:44:54;100697.81;;;34.81;29.42
58245;BME280;44550;43.864;25.986;2022-07-25T15:49:16;100704.69;;;34.75;30.58
58245;BME280;44550;43.864;25.986;2022-07-25T15:53:16;100706.84;;;34.72;29.66
58245;BME280;44550;43.864;25.986;2022-07-25T15:57:18;100700.50;;;34.91;29.43
58245;BME280;44550;43.864;25.986;2022-07-25T16:01:17;100697.81;;;34.91;30.16
58245;BME280;44550;43.864;25.986;2022-07-25T16:05:17;100692.75;;;35.05;30.14
58245;BME280;44550;43.864;25.986;2022-07-25T16:09:17;100691.31;;;35.01;29.15
58245;BME280;44550;43.864;25.986;2022-07-25T16:13:19;100691.09;;;34.85;30.01
58245;BME280;44550;43.864;25.986;2022-07-25T16:17:18;100692.06;;;34.94;29.89
58245;BME280;44550;43.864;25.986;2022-07-25T16:21:18;100686.44;;;35.15;30.65
58245;BME280;44550;43.864;25.986;2022-07-25T16:25:18;100691.41;;;35.47;30.72
58245;BME280;44550;43.864;25.986;2022-07-25T16:29:19;100694.25;;;35.73;30.49
58245;BME280;44550;43.864;25.986;2022-07-25T16:33:19;100705.66;;;35.59;29.63
58245;BME280;44550;43.864;25.986;2022-07-25T16:37:19;100700.72;;;35.17;29.66
58245;BME280;44550;43.864;25.986;2022-07-25T16:41:19;100701.63;;;35.08;29.57
58245;BME280;44550;43.864;25.986;2022-07-25T16:45:20;100696.63;;;35.03;30.08
58245;BME280;44550;43.864;25.986;2022-07-25T16:49:20;100699.47;;;35.11;30.47
58245;BME280;44550;43.864;25.986;2022-07-25T16:53:21;100703.59;;;35.15;30.51
58245;BME280;44550;43.864;25.986;2022-07-25T16:57:21;100700.22;;;34.94;31.10
58245;BME280;44550;43.864;25.986;2022-07-25T17:01:23;100700.28;;;34.74;31.83
58245;BME280;44550;43.864;25.986;2022-07-25T17:05:29;100696.31;;;34.30;32.70
58245;BME280;44550;43.864;25.986;2022-07-25T17:09:29;100696.16;;;34.41;32.60
58245;BME280;44550;43.864;25.986;2022-07-25T17:13:33;100698.88;;;34.41;31.98
58245;BME280;44550;43.864;25.986;2022-07-25T17:17:41;100698.16;;;34.29;32.44
58245;BME280;44550;43.864;25.986;2022-07-25T17:21:40;100702.19;;;34.16;32.33
58245;BME280;44550;43.864;25.986;2022-07-25T17:25:40;100707.72;;;33.95;33.12
58245;BME280;44550;43.864;25.986;2022-07-25T17:29:46;100712.16;;;33.96;33.97
58245;BME280;44550;43.864;25.986;2022-07-25T17:33:48;100705.72;;;33.97;34.21
58245;BME280;44550;43.864;25.986;2022-07-25T17:37:47;100714.69;;;33.97;34.79
58245;BME280;44550;43.864;25.986;2022-07-25T17:41:49;100706.44;;;33.89;34.83
58245;BME280;44550;43.864;25.986;2022-07-25T17:45:48;100707.72;;;33.85;35.02
58245;BME280;44550;43.864;25.986;2022-07-25T17:49:50;100706.41;;;33.79;34.73
58245;BME280;44550;43.864;25.986;2022-07-25T17:53:50;100709.38;;;33.57;34.65
58245;BME280;44550;43.864;25.986;2022-07-25T17:57:53;100708.50;;;33.16;36.06
58245;BME280;44550;43.864;25.986;2022-07-25T18:01:55;100705.84;;;33.05;36.61
58245;BME280;44550;43.864;25.986;2022-07-25T18:05:57;100721.19;;;32.94;37.10
58245;BME280;44550;43.864;25.986;2022-07-25T18:10:05;100711.44;;;32.82;36.77
58245;BME280;44550;43.864;25.986;2022-07-25T18:14:06;100714.41;;;32.58;36.63
58245;BME280;44550;43.864;25.986;2022-07-25T18:18:08;100713.94;;;32.32;37.16
58245;BME280;44550;43.864;25.986;2022-07-25T18:22:14;100710.16;;;31.91;37.91
58245;BME280;44550;43.864;25.986;2022-07-25T18:26:13;100719.31;;;31.45;38.96
58245;BME280;44550;43.864;25.986;2022-07-25T18:30:19;100720.03;;;31.25;39.30
58245;BME280;44550;43.864;25.986;2022-07-25T18:34:25;100722.88;;;31.23;39.58
58245;BME280;44550;43.864;25.986;2022-07-25T18:38:29;100710.19;;;31.12;39.94
58245;BME280;44550;43.864;25.986;2022-07-25T18:42:29;100729.75;;;31.27;40.30
58245;BME280;44550;43.864;25.986;2022-07-25T18:46:29;100714.78;;;31.23;40.11
58245;BME280;44550;43.864;25.986;2022-07-25T18:50:32;100724.22;;;31.18;40.39
58245;BME280;44550;43.864;25.986;2022-07-25T18:54:34;100718.69;;;30.97;41.04
58245;BME280;44550;43.864;25.986;2022-07-25T18:58:34;100728.38;;;30.88;41.47
58245;BME280;44550;43.864;25.986;2022-07-25T19:02:33;100719.13;;;30.79;41.71
58245;BME280;44550;43.864;25.986;2022-07-25T19:06:37;100737.63;;;30.73;42.23
58245;BME280;44550;43.864;25.986;2022-07-25T19:10:39;100738.69;;;30.59;42.61
58245;BME280;44550;43.864;25.986;2022-07-25T19:14:38;100733.66;;;30.54;42.30
58245;BME280;44550;43.864;25.986;2022-07-25T19:18:38;100737.34;;;30.53;42.97
58245;BME280;44550;43.864;25.986;2022-07-25T19:22:38;100735.91;;;30.60;43.19
58245;BME280;44550;43.864;25.986;2022-07-25T19:26:40;100744.63;;;30.16;44.66
58245;BME280;44550;43.864;25.986;2022-07-25T19:30:45;100738.69;;;29.50;47.29
58245;BME280;44550;43.864;25.986;2022-07-25T19:34:45;100742.53;;;29.22;48.41
58245;BME280;44550;43.864;25.986;2022-07-25T19:38:44;100735.44;;;29.21;48.28
58245;BME280;44550;43.864;25.986;2022-07-25T19:42:46;100735.31;;;29.22;47.95
58245;BME280;44550;43.864;25.986;2022-07-25T19:46:45;100737.53;;;28.90;48.79
58245;BME280;44550;43.864;25.986;2022-07-25T19:50:45;100735.94;;;28.75;48.82
58245;BME280;44550;43.864;25.986;2022-07-25T19:54:45;100737.19;;;28.56;48.82
58245;BME280;44550;43.864;25.986;2022-07-25T19:58:50;100733.25;;;28.35;50.83
58245;BME280;44550;43.864;25.986;2022-07-25T20:02:50;100737.91;;;28.06;51.54
58245;BME280;44550;43.864;25.986;2022-07-25T20:06:50;100734.16;;;28.08;51.74
58245;BME280;44550;43.864;25.986;2022-07-25T20:10:49;100736.78;;;28.23;50.92
58245;BME280;44550;43.864;25.986;2022-07-25T20:14:51;100735.75;;;28.38;50.78
58245;BME280;44550;43.864;25.986;2022-07-25T20:18:51;100726.66;;;28.26;50.63
58245;BME280;44550;43.864;25.986;2022-07-25T20:22:51;100743.25;;;28.33;50.66
58245;BME280;44550;43.864;25.986;2022-07-25T20:26:51;100738.53;;;28.37;50.95
58245;BME280;44550;43.864;25.986;2022-07-25T20:30:52;100738.41;;;27.98;50.41
58245;BME280;44550;43.864;25.986;2022-07-25T20:34:53;100745.84;;;27.80;51.03
58245;BME280;44550;43.864;25.986;2022-07-25T20:38:52;100737.97;;;27.92;51.53
58245;BME280;44550;43.864;25.986;2022-07-25T20:42:53;100747.13;;;28.02;50.15
58245;BME280;44550;43.864;25.986;2022-07-25T20:46:55;100735.94;;;27.95;50.01
58245;BME280;44550;43.864;25.986;2022-07-25T20:50:55;100749.00;;;27.73;48.98